Time;durP1;ratioP1;P1;durP2;ratioP2;P2;SDS_P1;SDS_P2;PMS_P1;PMS_P2;Temp;Humidity;BMP_temperature;BMP_pressure;BME280_temperature;BME280_humidity;BME280_pressure;Samples;Min_cycle;Max_cycle;Signal;HPM_P1;HPM_P2
2022/09/03 00:00:19;;;;;;;1.70;0.40;;;17.20;67.50;;;;;;5068097;28;20077;-95
2022/09/03 00:02:51;;;;;;;2.45;0.35;;;17.20;67.60;;;;;;5006985;28;20040;-95
2022/09/03 00:05:35;;;;;;;2.28;0.30;;;17.10;67.70;;;;;;5050030;28;20040;-94
2022/09/03 00:08:19;;;;;;;0.90;0.30;;;17.10;67.80;;;;;;5059672;28;20123;-94
2022/09/03 00:10:59;;;;;;;1.23;0.30;;;17.10;68.00;;;;;;5060838;28;20138;-94
2022/09/03 00:13:31;;;;;;;2.42;0.30;;;17.00;68.10;;;;;;5058335;28;20020;-96
2022/09/03 00:15:58;;;;;;;1.58;0.40;;;17.00;68.40;;;;;;5055356;28;20052;-95
2022/09/03 00:18:28;;;;;;;1.48;0.50;;;17.00;68.50;;;;;;5070556;28;20077;-94
2022/09/03 00:21:07;;;;;;;0.73;0.30;;;16.90;68.70;;;;;;5071354;28;20063;-94
2022/09/03 00:23:37;;;;;;;1.88;0.40;;;16.90;68.80;;;;;;5066445;28;20021;-94
2022/09/03 00:26:12;;;;;;;5.13;0.70;;;16.80;68.90;;;;;;5063155;28;20028;-94
2022/09/03 00:28:43;;;;;;;3.55;0.40;;;16.90;69.10;;;;;;5064672;28;20024;-94
2022/09/03 00:31:23;;;;;;;3.67;0.50;;;16.90;69.10;;;;;;5060166;28;20029;-96
2022/09/03 00:33:55;;;;;;;2.83;0.50;;;16.90;69.30;;;;;;5070518;28;20034;-94
2022/09/03 00:36:40;;;;;;;;;;;16.80;69.40;;;;;;5071504;28;20032;-95
2022/09/03 00:39:12;;;;;;;1.30;0.30;;;16.80;69.20;;;;;;5061425;28;19908;-94
2022/09/03 00:41:45;;;;;;;1.60;0.40;;;16.80;69.40;;;;;;5066203;28;20492;-94
2022/09/03 00:45:01;;;;;;;1.30;0.40;;;16.80;69.50;;;;;;5064941;28;20033;-94
2022/09/03 00:47:46;;;;;;;3.22;0.40;;;16.80;69.60;;;;;;5002827;28;20113;-95
2022/09/03 00:50:42;;;;;;;1.70;0.32;;;16.80;69.70;;;;;;5052185;28;20033;-94
2022/09/03 00:53:31;;;;;;;2.65;0.40;;;16.70;69.70;;;;;;5064410;28;20040;-93
2022/09/03 00:56:03;;;;;;;2.25;0.50;;;16.70;69.90;;;;;;5064601;28;20028;-93
2022/09/03 00:58:43;;;;;;;2.45;0.30;;;16.70;70.20;;;;;;5067328;28;20033;-94
2022/09/03 01:01:24;;;;;;;3.22;0.40;;;16.70;70.40;;;;;;5061230;28;20055;-95
2022/09/03 01:04:08;;;;;;;1.02;0.40;;;16.70;70.40;;;;;;5068593;28;20029;-94
2022/09/03 01:06:48;;;;;;;1.80;0.30;;;16.60;70.50;;;;;;5070319;28;20051;-95
2022/09/03 01:09:22;;;;;;;1.88;0.40;;;16.60;70.70;;;;;;5059672;28;20090;-94
2022/09/03 01:12:12;;;;;;;3.30;0.70;;;16.60;70.90;;;;;;5070316;28;20032;-94
2022/09/03 01:15:14;;;;;;;3.55;0.40;;;16.50;71.20;;;;;;5057632;28;20055;-94
2022/09/03 01:18:28;;;;;;;1.23;0.30;;;16.50;71.30;;;;;;5066218;28;20032;-95
2022/09/03 01:21:33;;;;;;;2.75;0.35;;;16.50;71.40;;;;;;5068555;28;20032;-94
2022/09/03 01:24:31;;;;;;;1.33;0.40;;;16.40;71.50;;;;;;5002080;28;20026;-94
2022/09/03 01:27:04;;;;;;;0.98;0.30;;;16.40;71.70;;;;;;5009790;28;20072;-94
2022/09/03 01:29:34;;;;;;;3.70;0.40;;;16.40;71.80;;;;;;5052895;28;20086;-95
2022/09/03 01:32:24;;;;;;;1.58;0.32;;;16.30;72.00;;;;;;5068745;28;20039;-94
2022/09/03 01:35:00;;;;;;;2.03;0.40;;;16.30;72.00;;;;;;5068783;28;20511;-95
2022/09/03 01:38:04;;;;;;;1.98;0.40;;;16.30;72.30;;;;;;5070518;28;20025;-95
2022/09/03 01:40:48;;;;;;;1.60;0.30;;;16.30;72.40;;;;;;5028876;28;20028;-95
2022/09/03 01:43:14;;;;;;;3.83;0.68;;;16.20;72.40;;;;;;5060611;28;20427;-95
2022/09/03 01:45:49;;;;;;;3.75;0.57;;;16.20;72.60;;;;;;5072840;28;20028;-95
2022/09/03 01:48:41;;;;;;;2.38;0.40;;;16.20;72.70;;;;;;5072082;28;20013;-95
2022/09/03 01:51:23;;;;;;;0.88;0.30;;;16.20;72.90;;;;;;5067774;28;20515;-94
2022/09/03 01:54:16;;;;;;;2.63;0.30;;;16.20;73.00;;;;;;5072141;28;20037;-94
2022/09/03 01:57:18;;;;;;;1.25;0.40;;;16.20;73.30;;;;;;5056911;28;20363;-95
2022/09/03 02:00:02;;;;;;;1.15;0.38;;;16.10;73.30;;;;;;5065698;28;20040;-94
2022/09/03 02:02:29;;;;;;;1.33;0.40;;;16.10;73.50;;;;;;5071199;28;20108;-95
2022/09/03 02:05:01;;;;;;;1.02;0.43;;;16.00;73.50;;;;;;5072394;28;20053;-93
2022/09/03 02:07:33;;;;;;;2.25;0.45;;;16.00;73.70;;;;;;5073283;28;20012;-96
2022/09/03 02:10:00;;;;;;;3.25;0.40;;;16.00;73.70;;;;;;5070209;28;20033;-95
2022/09/03 02:12:32;;;;;;;2.53;0.38;;;16.00;73.80;;;;;;5068604;28;20466;-94
2022/09/03 02:15:03;;;;;;;2.75;0.40;;;16.00;74.00;;;;;;5068729;28;20040;-94
2022/09/03 02:17:31;;;;;;;4.90;0.40;;;16.00;74.20;;;;;;5059795;28;20029;-95
2022/09/03 02:19:58;;;;;;;3.53;0.52;;;16.00;74.30;;;;;;5072142;28;20106;-95
2022/09/03 02:22:24;;;;;;;2.80;0.50;;;16.00;74.40;;;;;;5073636;28;20101;-95
2022/09/03 02:24:49;;;;;;;3.67;0.70;;;16.00;74.30;;;;;;5072505;28;20028;-94
2022/09/03 02:27:18;;;;;;;3.22;0.50;;;16.00;74.30;;;;;;5071939;28;20033;-93
2022/09/03 02:29:56;;;;;;;1.83;0.50;;;16.10;74.20;;;;;;5074206;28;20515;-95
2022/09/03 02:32:21;;;;;;;2.03;0.60;;;16.00;74.20;;;;;;5073370;28;20029;-94
2022/09/03 02:34:57;;;;;;;3.70;0.60;;;16.00;74.20;;;;;;5073046;28;20105;-94
2022/09/03 02:37:23;;;;;;;4.40;0.50;;;16.10;74.10;;;;;;5064196;28;20119;-95
2022/09/03 02:39:50;;;;;;;1.83;0.47;;;16.00;74.10;;;;;;5064732;28;20075;-95
2022/09/03 02:42:17;;;;;;;3.35;0.98;;;16.00;74.30;;;;;;5065990;28;20232;-94
2022/09/03 02:45:07;;;;;;;1.80;0.50;;;16.00;74.40;;;;;;5070634;28;20058;-93
2022/09/03 02:47:35;;;;;;;1.60;0.40;;;16.00;74.50;;;;;;5071190;28;20052;-95
2022/09/03 02:50:10;;;;;;;3.45;0.43;;;15.90;74.70;;;;;;5072160;28;20020;-93
2022/09/03 02:52:42;;;;;;;4.20;0.57;;;15.90;75.00;;;;;;5066990;28;20021;-94
2022/09/03 02:55:08;;;;;;;1.92;0.50;;;15.80;75.10;;;;;;5071688;28;20051;-94
2022/09/03 02:57:34;;;;;;;3.38;0.57;;;15.80;75.30;;;;;;5069885;28;20016;-95
2022/09/03 02:59:59;;;;;;;3.40;0.52;;;15.70;75.40;;;;;;5073699;28;20028;-95
2022/09/03 03:02:25;;;;;;;1.40;0.47;;;15.70;75.60;;;;;;5067864;28;20040;-94
2022/09/03 03:04:56;;;;;;;3.78;0.50;;;15.70;75.80;;;;;;5070978;28;20071;-95
2022/09/03 03:07:24;;;;;;;1.95;0.50;;;15.60;76.00;;;;;;5052864;28;20492;-94
2022/09/03 03:09:50;;;;;;;2.97;0.55;;;15.60;76.10;;;;;;5048440;28;20035;-93
2022/09/03 03:12:22;;;;;;;6.05;0.60;;;15.60;76.20;;;;;;5049194;28;20028;-93
2022/09/03 03:14:55;;;;;;;3.17;0.50;;;15.60;76.30;;;;;;5058063;28;20060;-95
2022/09/03 03:17:51;;;;;;;2.90;0.50;;;15.60;76.50;;;;;;5062039;28;20028;-94
2022/09/03 03:20:17;;;;;;;4.60;0.75;;;15.60;76.60;;;;;;5047367;28;20529;-93
2022/09/03 03:22:50;;;;;;;3.55;0.50;;;15.60;76.60;;;;;;5056925;28;20020;-93
2022/09/03 03:25:15;;;;;;;3.55;0.50;;;15.60;76.70;;;;;;5067136;28;20024;-94
2022/09/03 03:27:42;;;;;;;3.50;0.57;;;15.60;76.70;;;;;;5058466;28;20035;-95
2022/09/03 03:30:09;;;;;;;2.35;0.40;;;15.60;76.70;;;;;;5052365;28;20102;-94
2022/09/03 03:32:38;;;;;;;1.90;0.50;;;15.60;76.90;;;;;;5056198;28;20024;-94
2022/09/03 03:35:05;;;;;;;1.83;0.40;;;15.60;76.90;;;;;;5054648;28;20063;-94
2022/09/03 03:37:31;;;;;;;2.60;0.70;;;15.60;76.90;;;;;;5055257;28;20025;-95
2022/09/03 03:39:57;;;;;;;2.20;0.60;;;15.60;77.00;;;;;;5045590;28;20061;-95
2022/09/03 03:42:23;;;;;;;1.05;0.40;;;15.60;77.10;;;;;;5052986;28;20408;-93
2022/09/03 03:44:48;;;;;;;2.17;0.50;;;15.60;77.30;;;;;;5060673;28;20032;-94
2022/09/03 03:47:15;;;;;;;1.75;0.57;;;15.50;77.30;;;;;;5062368;28;20021;-94
2022/09/03 03:49:44;;;;;;;1.95;0.50;;;15.50;77.50;;;;;;5057662;28;20079;-94
2022/09/03 03:52:12;;;;;;;2.72;0.50;;;15.40;77.60;;;;;;5053806;28;20031;-94
2022/09/03 03:54:38;;;;;;;3.05;0.50;;;15.40;77.70;;;;;;5052168;28;20098;-94
2022/09/03 03:57:03;;;;;;;1.63;0.50;;;15.30;77.70;;;;;;5043594;28;20020;-92
2022/09/03 03:59:29;;;;;;;4.40;0.70;;;15.30;77.80;;;;;;5052226;28;20086;-94
2022/09/03 04:01:54;;;;;;;2.05;0.40;;;15.30;78.00;;;;;;5058910;28;20051;-95
2022/09/03 04:04:20;;;;;;;1.30;0.40;;;15.20;78.00;;;;;;5075922;28;20028;-94
2022/09/03 04:06:45;;;;;;;2.20;0.60;;;15.20;78.20;;;;;;5070497;28;20044;-94
2022/09/03 04:09:14;;;;;;;3.78;0.50;;;15.10;78.40;;;;;;5061534;28;20526;-94
2022/09/03 04:11:40;;;;;;;2.85;0.40;;;15.10;78.50;;;;;;5057262;28;20077;-93
2022/09/03 04:14:05;;;;;;;4.68;0.60;;;15.10;78.80;;;;;;5065553;28;20032;-93
2022/09/03 04:16:31;;;;;;;2.20;0.43;;;15.00;79.00;;;;;;5068981;28;20028;-94
2022/09/03 04:18:57;;;;;;;2.03;0.47;;;14.90;79.40;;;;;;5056462;28;20376;-94
2022/09/03 04:21:26;;;;;;;1.08;0.40;;;14.80;79.60;;;;;;5037349;28;20036;-94
2022/09/03 04:23:52;;;;;;;3.25;0.50;;;14.80;79.90;;;;;;5052663;28;20039;-93
2022/09/03 04:26:22;;;;;;;2.30;0.40;;;14.70;80.10;;;;;;5057961;28;20115;-94
2022/09/03 04:28:48;;;;;;;1.45;0.50;;;14.70;80.40;;;;;;5047422;28;20059;-94
2022/09/03 04:31:16;;;;;;;2.67;0.60;;;14.60;80.50;;;;;;5056170;28;20021;-95
2022/09/03 04:33:42;;;;;;;3.67;0.52;;;14.50;80.90;;;;;;5055608;28;20028;-95
2022/09/03 04:36:22;;;;;;;6.55;0.70;;;14.50;80.90;;;;;;5057294;28;20513;-95
2022/09/03 04:38:50;;;;;;;1.73;0.43;;;14.50;81.10;;;;;;5060397;28;20036;-95
2022/09/03 04:41:18;;;;;;;1.92;0.50;;;14.40;81.10;;;;;;5054060;28;20021;-95
2022/09/03 04:43:45;;;;;;;2.50;0.43;;;14.40;81.20;;;;;;5055668;28;20017;-94
2022/09/03 04:46:13;;;;;;;2.40;0.57;;;14.30;81.40;;;;;;5055315;28;20060;-94
2022/09/03 04:48:39;;;;;;;1.40;0.40;;;14.20;81.60;;;;;;5054160;28;20021;-95
2022/09/03 04:51:14;;;;;;;2.47;0.65;;;14.20;81.90;;;;;;5042857;28;20088;-95
2022/09/03 04:53:44;;;;;;;2.72;0.65;;;14.20;82.00;;;;;;5067809;28;20032;-95
2022/09/03 04:56:17;;;;;;;1.08;0.47;;;14.10;82.30;;;;;;5074905;28;20044;-94
2022/09/03 04:58:43;;;;;;;1.52;0.50;;;14.10;82.50;;;;;;5057139;28;20488;-95
2022/09/03 05:01:15;;;;;;;6.05;0.60;;;14.00;82.50;;;;;;5054675;28;20055;-95
2022/09/03 05:03:40;;;;;;;1.77;0.50;;;14.00;82.80;;;;;;5053328;28;20040;-93
2022/09/03 05:06:07;;;;;;;2.10;0.65;;;14.00;82.90;;;;;;5052381;28;20504;-93
2022/09/03 05:08:36;;;;;;;3.83;0.60;;;14.00;83.10;;;;;;5050985;28;20049;-95
2022/09/03 05:11:07;;;;;;;3.47;0.77;;;13.90;83.20;;;;;;5045663;28;20166;-95
2022/09/03 05:13:35;;;;;;;1.33;0.50;;;13.90;83.40;;;;;;5059162;28;20464;-95
2022/09/03 05:16:05;;;;;;;1.90;0.50;;;13.90;83.50;;;;;;5059553;28;20034;-95
2022/09/03 05:18:31;;;;;;;2.80;0.70;;;13.90;83.70;;;;;;5049082;28;20080;-94
2022/09/03 05:21:03;;;;;;;1.35;0.50;;;13.90;83.80;;;;;;5057592;28;20067;-94
2022/09/03 05:23:29;;;;;;;2.05;0.60;;;13.90;84.00;;;;;;5056024;28;20020;-95
2022/09/03 05:26:01;;;;;;;5.68;0.70;;;13.90;84.10;;;;;;5038827;28;20499;-96
2022/09/03 05:28:29;;;;;;;2.47;0.50;;;13.90;84.20;;;;;;5052491;28;20468;-94
2022/09/03 05:31:14;;;;;;;1.30;0.52;;;13.90;84.20;;;;;;5058782;28;20032;-95
2022/09/03 05:33:42;;;;;;;2.17;0.40;;;14.00;84.30;;;;;;5060995;28;20025;-95
2022/09/03 05:36:11;;;;;;;6.68;0.70;;;14.00;84.40;;;;;;5072719;28;20063;-95
2022/09/03 05:38:38;;;;;;;3.55;0.70;;;14.10;84.40;;;;;;5072077;28;20048;-94
2022/09/03 05:41:06;;;;;;;1.73;0.50;;;14.10;84.40;;;;;;5065543;28;20024;-96
2022/09/03 05:43:32;;;;;;;4.03;0.52;;;14.20;84.50;;;;;;5074722;28;20107;-95
2022/09/03 05:46:00;;;;;;;4.70;0.50;;;14.20;84.40;;;;;;5040769;28;20037;-95
2022/09/03 05:48:27;;;;;;;3.65;0.70;;;14.20;84.30;;;;;;5054586;28;20021;-95
2022/09/03 05:51:16;;;;;;;3.53;0.60;;;14.30;84.30;;;;;;5064188;28;20056;-95
2022/09/03 05:53:44;;;;;;;2.80;0.60;;;14.40;84.30;;;;;;5064420;28;20063;-95
2022/09/03 05:56:18;;;;;;;2.65;0.50;;;14.40;84.20;;;;;;5065151;28;20031;-96
2022/09/03 05:58:50;;;;;;;1.98;0.68;;;14.50;84.20;;;;;;5054321;28;20017;-95
2022/09/03 06:01:20;;;;;;;2.28;0.50;;;14.60;84.30;;;;;;5069885;28;20491;-95
2022/09/03 06:03:51;;;;;;;2.38;0.60;;;14.70;84.20;;;;;;5067492;28;20033;-96
2022/09/03 06:06:17;;;;;;;1.47;0.50;;;14.70;84.30;;;;;;5063300;28;20549;-95
2022/09/03 06:08:43;;;;;;;1.90;0.70;;;14.80;84.20;;;;;;5059663;28;20016;-95
2022/09/03 06:11:10;;;;;;;2.85;0.60;;;14.90;84.10;;;;;;5059400;28;20590;-95
2022/09/03 06:13:36;;;;;;;2.50;0.50;;;14.90;84.00;;;;;;5058121;28;20028;-96
2022/09/03 06:16:05;;;;;;;1.50;0.52;;;15.00;83.90;;;;;;5069480;28;20037;-94
2022/09/03 06:18:31;;;;;;;1.15;0.43;;;15.10;83.80;;;;;;5057756;28;20029;-95
2022/09/03 06:20:58;;;;;;;2.05;0.80;;;15.20;83.60;;;;;;5059499;28;20028;-96
2022/09/03 06:23:25;;;;;;;3.53;0.57;;;15.30;83.40;;;;;;5046643;28;20025;-96
2022/09/03 06:26:11;;;;;;;1.67;0.40;;;15.30;83.30;;;;;;5052045;28;20099;-95
2022/09/03 06:28:40;;;;;;;2.78;0.50;;;15.50;83.20;;;;;;5065196;28;20024;-96
2022/09/03 06:31:07;;;;;;;2.20;0.50;;;15.50;83.00;;;;;;5060164;28;20047;-96
2022/09/03 06:33:35;;;;;;;3.60;0.60;;;15.60;82.90;;;;;;5056018;28;20054;-95
2022/09/03 06:36:03;;;;;;;8.20;0.43;;;15.70;82.60;;;;;;5040661;28;20555;-95
2022/09/03 06:38:32;;;;;;;1.50;0.40;;;15.80;82.50;;;;;;5044465;28;20028;-94
2022/09/03 06:41:03;;;;;;;5.55;0.70;;;16.00;82.20;;;;;;5054791;28;20392;-95
2022/09/03 06:43:37;;;;;;;1.20;0.38;;;16.10;82.10;;;;;;5047748;28;20481;-95
2022/09/03 06:46:05;;;;;;;1.58;0.40;;;16.20;81.80;;;;;;5065923;28;20032;-95
2022/09/03 06:48:32;;;;;;;3.13;0.38;;;16.30;81.60;;;;;;5051854;28;20021;-95
2022/09/03 06:51:01;;;;;;;2.45;0.50;;;16.40;81.40;;;;;;5044873;28;20047;-95
2022/09/03 06:53:30;;;;;;;2.67;0.40;;;16.50;81.10;;;;;;5056610;28;20025;-95
2022/09/03 06:56:02;;;;;;;1.73;0.40;;;16.70;81.00;;;;;;5049928;28;20029;-94
2022/09/03 06:58:36;;;;;;;5.45;0.70;;;16.80;80.70;;;;;;5043849;28;20028;-95
2022/09/03 07:01:07;;;;;;;4.38;0.50;;;16.90;80.50;;;;;;5050625;28;20166;-95
2022/09/03 07:03:41;;;;;;;1.30;0.60;;;17.10;80.20;;;;;;5046783;28;20101;-94
2022/09/03 07:06:09;;;;;;;3.05;0.40;;;17.20;80.00;;;;;;5056555;28;20055;-94
2022/09/03 07:08:35;;;;;;;2.53;0.50;;;17.40;79.70;;;;;;5061150;28;20376;-95
2022/09/03 07:11:04;;;;;;;2.47;0.40;;;17.50;79.30;;;;;;5065737;28;20020;-95
2022/09/03 07:13:32;;;;;;;1.85;0.28;;;17.60;78.80;;;;;;5059428;28;20109;-94
2022/09/03 07:15:59;;;;;;;3.33;0.50;;;17.80;78.70;;;;;;5065439;28;20485;-94
2022/09/03 07:18:25;;;;;;;1.55;0.40;;;18.00;78.10;;;;;;5051230;28;20501;-94
2022/09/03 07:20:50;;;;;;;2.72;0.30;;;18.10;77.50;;;;;;5058628;28;20074;-94
2022/09/03 07:23:17;;;;;;;2.20;0.30;;;18.30;76.50;;;;;;5060288;28;20477;-95
2022/09/03 07:25:42;;;;;;;1.80;0.30;;;18.40;75.90;;;;;;5051647;28;20024;-94
2022/09/03 07:28:08;;;;;;;2.13;0.40;;;18.60;75.50;;;;;;5039656;28;20032;-95
2022/09/03 07:30:34;;;;;;;1.98;0.40;;;18.70;74.70;;;;;;5056172;28;20027;-94
2022/09/03 07:33:03;;;;;;;3.40;0.45;;;18.80;73.70;;;;;;5056910;28;20032;-93
2022/09/03 07:35:29;;;;;;;1.83;0.40;;;19.00;73.30;;;;;;5054472;28;20072;-94
2022/09/03 07:37:55;;;;;;;2.30;0.30;;;19.10;73.00;;;;;;5054981;28;20389;-94
2022/09/03 07:40:20;;;;;;;1.73;0.30;;;19.20;72.70;;;;;;5056024;28;20032;-93
2022/09/03 07:42:47;;;;;;;3.30;0.50;;;19.30;72.20;;;;;;5047942;28;20017;-94
2022/09/03 07:45:13;;;;;;;2.30;0.30;;;19.40;71.80;;;;;;5075966;28;20032;-96
2022/09/03 07:47:46;;;;;;;1.95;0.30;;;19.60;71.60;;;;;;5058367;28;20028;-94
2022/09/03 07:50:12;;;;;;;3.17;0.32;;;19.70;71.30;;;;;;5042194;28;20035;-94
2022/09/03 07:52:37;;;;;;;0.93;0.20;;;19.80;71.10;;;;;;5058727;28;20488;-94
2022/09/03 07:55:03;;;;;;;3.42;0.32;;;19.90;70.70;;;;;;5062222;28;20403;-95
2022/09/03 07:57:29;;;;;;;2.75;0.35;;;20.10;70.50;;;;;;5056034;28;20705;-95
2022/09/03 07:59:54;;;;;;;1.80;0.35;;;20.20;69.60;;;;;;5055254;28;20119;-94
2022/09/03 08:02:20;;;;;;;1.63;0.30;;;20.20;69.50;;;;;;5055552;28;20034;-94
2022/09/03 08:04:46;;;;;;;1.48;0.30;;;20.30;70.00;;;;;;5056653;28;20103;-95
2022/09/03 08:07:11;;;;;;;2.45;0.28;;;20.40;69.20;;;;;;5051523;28;20041;-95
2022/09/03 08:09:37;;;;;;;3.72;0.43;;;20.50;68.80;;;;;;5042023;28;20021;-94
2022/09/03 08:12:04;;;;;;;2.13;0.30;;;20.60;68.60;;;;;;5052136;28;20051;-94
2022/09/03 08:14:30;;;;;;;4.65;0.40;;;20.70;68.40;;;;;;5057683;28;20036;-94
2022/09/03 08:16:56;;;;;;;1.88;0.35;;;20.80;68.20;;;;;;5071639;28;20040;-95
2022/09/03 08:19:22;;;;;;;1.98;0.30;;;20.90;67.80;;;;;;5060055;28;20029;-94
2022/09/03 08:21:47;;;;;;;3.25;0.40;;;21.00;67.60;;;;;;5053541;28;20020;-93
2022/09/03 08:24:15;;;;;;;1.58;0.30;;;21.10;67.20;;;;;;5053049;28;20035;-94
2022/09/03 08:26:41;;;;;;;2.13;0.20;;;21.20;66.90;;;;;;5055206;28;20023;-94
2022/09/03 08:29:08;;;;;;;2.13;0.38;;;21.20;66.50;;;;;;5044486;28;20029;-94
2022/09/03 08:31:35;;;;;;;3.58;0.90;;;21.30;66.50;;;;;;5050293;28;20115;-94
2022/09/03 08:34:05;;;;;;;1.80;0.40;;;21.40;66.30;;;;;;5068353;28;20032;-95
2022/09/03 08:36:35;;;;;;;5.78;1.20;;;21.50;66.00;;;;;;5041073;28;20020;-94
2022/09/03 08:39:03;;;;;;;2.85;0.30;;;21.60;65.70;;;;;;5053996;28;20049;-93
2022/09/03 08:42:09;;;;;;;2.97;0.30;;;21.60;65.30;;;;;;5052231;28;20121;-93
2022/09/03 08:45:18;;;;;;;2.65;0.30;;;21.70;65.40;;;;;;5052791;28;20024;-95
2022/09/03 08:48:07;;;;;;;1.85;0.22;;;21.80;64.90;;;;;;4959725;28;20037;-93
2022/09/03 08:50:45;;;;;;;2.58;0.40;;;21.90;64.80;;;;;;5054580;28;20123;-94
2022/09/03 08:53:35;;;;;;;2.97;0.30;;;21.90;64.20;;;;;;5046119;28;20064;-95
2022/09/03 08:56:09;;;;;;;2.40;0.30;;;22.00;64.40;;;;;;5038246;28;20095;-94
2022/09/03 08:58:42;;;;;;;3.60;0.38;;;22.00;64.20;;;;;;5061827;28;20016;-94
2022/09/03 09:01:25;;;;;;;1.58;0.20;;;22.10;64.10;;;;;;5051004;28;20032;-95
2022/09/03 09:04:13;;;;;;;2.00;0.40;;;22.20;63.30;;;;;;5051582;28;20024;-93
2022/09/03 09:07:04;;;;;;;2.90;0.30;;;22.30;63.40;;;;;;5055373;28;20036;-94
2022/09/03 09:09:34;;;;;;;3.03;0.30;;;22.40;63.50;;;;;;5051173;28;20021;-93
2022/09/03 09:12:07;;;;;;;1.30;0.32;;;22.40;63.00;;;;;;5051415;28;20083;-93
2022/09/03 09:14:39;;;;;;;1.02;0.20;;;22.60;62.70;;;;;;5055576;28;20047;-92
2022/09/03 09:17:30;;;;;;;1.50;0.38;;;22.60;62.60;;;;;;5081843;28;20112;-94
2022/09/03 09:20:16;;;;;;;4.30;0.38;;;22.70;62.00;;;;;;5054670;28;20042;-94
2022/09/03 09:22:57;;;;;;;0.70;0.20;;;22.80;61.80;;;;;;5059657;28;20028;-94
2022/09/03 09:25:25;;;;;;;1.35;0.30;;;22.90;61.40;;;;;;5045008;28;20032;-94
2022/09/03 09:27:58;;;;;;;3.72;0.40;;;22.90;61.10;;;;;;5052375;28;20039;-94
2022/09/03 09:30:24;;;;;;;1.20;0.32;;;23.00;61.30;;;;;;5059051;28;20028;-93
2022/09/03 09:32:49;;;;;;;2.97;0.30;;;23.00;60.90;;;;;;5058398;28;20020;-96
2022/09/03 09:35:17;;;;;;;3.65;0.65;;;23.10;60.50;;;;;;5045947;28;20029;-94
2022/09/03 09:37:53;;;;;;;4.03;0.30;;;23.20;60.40;;;;;;5055422;28;20021;-94
2022/09/03 09:40:34;;;;;;;1.60;0.30;;;23.30;60.80;;;;;;5052694;28;20028;-94
2022/09/03 09:43:13;;;;;;;4.78;0.30;;;23.40;60.30;;;;;;5062317;28;20028;-94
2022/09/03 09:45:41;;;;;;;4.35;0.32;;;23.50;60.00;;;;;;5068267;28;20056;-95
2022/09/03 09:48:17;;;;;;;2.70;0.30;;;23.50;59.90;;;;;;5067078;28;20369;-94
2022/09/03 09:50:43;;;;;;;1.48;0.35;;;23.70;59.90;;;;;;5052379;28;20027;-94
2022/09/03 09:53:17;;;;;;;2.15;0.45;;;23.70;59.60;;;;;;5057700;28;20028;-94
2022/09/03 09:55:50;;;;;;;3.08;0.50;;;23.80;59.40;;;;;;5056801;28;20033;-94
2022/09/03 09:58:19;;;;;;;1.40;0.30;;;23.80;59.40;;;;;;5049969;28;20091;-94
2022/09/03 10:01:03;;;;;;;1.52;0.30;;;24.00;59.50;;;;;;5067036;28;20032;-94
2022/09/03 10:03:34;;;;;;;3.17;0.43;;;24.10;59.30;;;;;;5056577;28;20035;-95
2022/09/03 10:09:09;;;;;;;4.53;0.40;;;24.10;59.10;;;;;;5075912;28;20086;-93
2022/09/03 10:11:39;;;;;;;2.42;0.30;;;24.20;58.80;;;;;;5056287;28;20116;-93
2022/09/03 10:14:11;;;;;;;2.75;0.30;;;24.30;59.00;;;;;;5060849;28;20041;-93
2022/09/03 10:16:38;;;;;;;;;;;24.40;58.70;;;;;;5064330;28;20024;-93
2022/09/03 10:19:16;;;;;;;1.98;0.30;;;24.50;58.40;;;;;;5055375;28;19959;-94
2022/09/03 10:22:01;;;;;;;1.42;0.30;;;24.60;58.50;;;;;;5066679;28;20057;-94
2022/09/03 10:24:38;;;;;;;2.95;0.22;;;24.70;58.50;;;;;;5044857;28;20020;-93
2022/09/03 10:27:07;;;;;;;2.00;0.35;;;24.80;58.70;;;;;;5058768;28;20035;-93
2022/09/03 10:29:33;;;;;;;4.00;0.88;;;24.90;58.30;;;;;;5055473;28;20028;-94
2022/09/03 10:32:09;;;;;;;2.33;0.40;;;25.10;58.20;;;;;;5064681;28;20024;-93
2022/09/03 10:34:53;;;;;;;2.35;0.40;;;25.10;57.40;;;;;;5060407;28;20040;-93
2022/09/03 10:37:39;;;;;;;2.05;0.30;;;25.20;58.00;;;;;;5057349;28;20115;-92
2022/09/03 10:40:23;;;;;;;1.95;0.30;;;25.20;57.80;;;;;;5065216;28;20491;-93
2022/09/03 10:43:19;;;;;;;1.92;0.55;;;25.30;58.10;;;;;;5074204;28;20611;-95
2022/09/03 10:45:51;;;;;;;3.13;0.40;;;25.40;57.60;;;;;;5054499;28;20044;-94
2022/09/03 10:48:31;;;;;;;4.22;0.40;;;25.50;57.20;;;;;;5056332;28;20028;-93
2022/09/03 10:51:23;;;;;;;1.48;0.40;;;25.50;56.90;;;;;;5058217;28;20504;-92
2022/09/03 10:54:25;;;;;;;2.97;0.30;;;25.60;56.50;;;;;;5062087;28;20079;-94
2022/09/03 10:57:10;;;;;;;2.55;0.40;;;25.60;56.30;;;;;;5056015;28;20035;-94
2022/09/03 10:59:56;;;;;;;1.25;0.40;;;25.70;56.20;;;;;;5070575;28;20028;-93
2022/09/03 11:02:59;;;;;;;2.45;0.40;;;25.70;56.20;;;;;;5029190;28;20041;-93
2022/09/03 11:05:41;;;;;;;1.75;0.40;;;25.70;55.90;;;;;;5052691;28;20024;-94
2022/09/03 11:08:36;;;;;;;2.65;0.60;;;25.80;56.30;;;;;;5058595;28;20080;-94
2022/09/03 11:11:15;;;;;;;5.40;0.60;;;25.90;56.20;;;;;;5048171;28;20029;-94
2022/09/03 11:13:48;;;;;;;2.28;0.40;;;26.00;56.10;;;;;;5037180;28;20031;-95
2022/09/03 11:16:24;;;;;;;3.80;0.50;;;26.10;55.80;;;;;;5042308;28;20086;-93
2022/09/03 11:18:52;;;;;;;2.58;0.73;;;26.10;55.20;;;;;;5052065;28;20103;-94
2022/09/03 11:21:23;;;;;;;1.20;0.30;;;26.00;55.50;;;;;;5036428;28;20147;-93
2022/09/03 11:24:22;;;;;;;3.53;0.50;;;26.00;55.60;;;;;;5044625;28;20127;-91
2022/09/03 11:27:09;;;;;;;1.58;0.40;;;26.10;54.90;;;;;;5055316;28;20028;-92
2022/09/03 11:30:09;;;;;;;2.05;0.30;;;26.00;55.30;;;;;;5049632;28;20024;-93
2022/09/03 11:32:53;;;;;;;2.42;0.30;;;26.00;55.20;;;;;;5043959;28;20424;-93
2022/09/03 11:35:30;;;;;;;1.52;0.30;;;26.10;55.00;;;;;;5063301;28;20061;-94
2022/09/03 11:38:05;;;;;;;3.05;0.60;;;26.20;55.10;;;;;;5059862;28;20039;-95
2022/09/03 11:40:57;;;;;;;3.85;0.50;;;26.30;54.70;;;;;;5044627;28;20104;-94
2022/09/03 11:43:33;;;;;;;4.85;0.50;;;26.50;54.80;;;;;;5052798;28;20060;-94
2022/09/03 11:46:25;;;;;;;2.85;0.50;;;26.50;54.30;;;;;;5054714;28;20025;-93
2022/09/03 11:48:54;;;;;;;2.85;0.60;;;26.50;54.20;;;;;;5053056;28;20029;-92
2022/09/03 11:51:28;;;;;;;2.92;0.40;;;26.40;54.10;;;;;;5057320;28;20063;-94
2022/09/03 11:54:01;;;;;;;1.40;0.40;;;26.40;54.40;;;;;;5057656;28;20484;-94
2022/09/03 11:56:29;;;;;;;3.58;0.50;;;26.30;54.60;;;;;;5062734;28;20035;-93
2022/09/03 11:59:22;;;;;;;1.98;0.50;;;26.40;54.80;;;;;;5056200;28;20060;-94
2022/09/03 12:02:36;;;;;;;1.70;0.40;;;26.60;54.70;;;;;;5053286;28;20079;-92
2022/09/03 12:05:20;;;;;;;1.85;0.50;;;26.70;54.50;;;;;;4985659;28;20486;-92
2022/09/03 12:08:23;;;;;;;1.98;0.40;;;26.80;54.30;;;;;;5042292;28;20052;-94
2022/09/03 12:11:08;;;;;;;1.58;0.60;;;27.00;53.80;;;;;;5037629;28;20506;-93
2022/09/03 12:13:55;;;;;;;2.88;0.50;;;27.00;54.40;;;;;;5049131;28;20017;-94
2022/09/03 12:16:37;;;;;;;4.63;1.35;;;27.20;53.90;;;;;;5016718;28;20074;-94
2022/09/03 12:19:10;;;;;;;1.65;0.60;;;27.20;53.30;;;;;;5034817;28;20120;-93
2022/09/03 12:21:39;;;;;;;3.58;0.40;;;27.20;53.80;;;;;;5035590;28;20060;-94
2022/09/03 12:24:06;;;;;;;1.58;0.40;;;27.20;54.00;;;;;;5034964;28;20072;-93
2022/09/03 12:26:41;;;;;;;2.65;0.30;;;27.40;53.70;;;;;;5036619;28;20599;-93
2022/09/03 12:29:23;;;;;;;3.08;0.40;;;27.50;53.80;;;;;;5034403;28;20016;-94
2022/09/03 12:31:50;;;;;;;;;;;27.60;53.70;;;;;;5036927;28;20448;-94
2022/09/03 12:34:17;;;;;;;1.60;0.40;;;27.60;53.40;;;;;;5053370;28;19970;-93
2022/09/03 12:36:50;;;;;;;3.75;0.47;;;27.60;53.10;;;;;;5030212;28;20040;-94
2022/09/03 12:39:24;;;;;;;2.65;0.50;;;27.70;53.50;;;;;;5064922;28;20032;-93
2022/09/03 12:42:06;;;;;;;1.98;0.40;;;27.70;53.10;;;;;;5034496;28;20021;-93
2022/09/03 12:44:40;;;;;;;1.23;0.40;;;27.80;52.80;;;;;;5039659;28;20029;-94
2022/09/03 12:47:10;;;;;;;2.22;0.40;;;27.80;52.80;;;;;;5049895;28;20013;-96
2022/09/03 12:49:41;;;;;;;3.40;0.40;;;27.90;52.60;;;;;;5034558;28;20024;-93
2022/09/03 12:52:23;;;;;;;2.00;0.50;;;28.00;52.50;;;;;;5033763;28;20028;-93
2022/09/03 12:55:05;;;;;;;3.50;0.50;;;28.10;52.10;;;;;;5035798;28;20045;-93
2022/09/03 12:57:39;;;;;;;2.25;0.73;;;28.10;52.00;;;;;;5033440;28;20048;-94
2022/09/03 13:00:08;;;;;;;1.90;0.40;;;28.20;51.90;;;;;;5015325;28;20113;-93
2022/09/03 13:02:46;;;;;;;1.50;0.60;;;28.10;51.70;;;;;;5032226;28;20029;-94
2022/09/03 13:05:20;;;;;;;1.88;0.40;;;28.20;51.70;;;;;;5046655;28;20031;-93
2022/09/03 13:07:51;;;;;;;2.65;0.30;;;28.20;51.40;;;;;;5053060;28;20500;-93
2022/09/03 13:10:40;;;;;;;2.88;0.50;;;28.30;51.40;;;;;;5058204;28;20040;-94
2022/09/03 13:13:28;;;;;;;2.15;0.40;;;28.30;51.30;;;;;;5054778;28;20033;-93
2022/09/03 13:16:28;;;;;;;2.55;0.40;;;28.40;51.20;;;;;;5056553;28;20035;-94
2022/09/03 13:19:23;;;;;;;3.17;0.40;;;28.40;51.30;;;;;;5029667;28;20081;-93
2022/09/03 13:22:08;;;;;;;2.03;0.50;;;28.50;51.10;;;;;;5057329;28;20037;-93
2022/09/03 13:24:49;;;;;;;1.27;0.40;;;28.50;50.80;;;;;;5067093;28;20024;-93
2022/09/03 13:27:34;;;;;;;1.63;0.30;;;28.50;50.80;;;;;;5055496;28;20393;-93